createdAt,value
2023-04-21T00:01:40.426Z,6.56
2023-04-21T00:12:01.802Z,6.52
2023-04-21T00:22:23.010Z,6.47
2023-04-21T00:32:44.372Z,6.40
2023-04-21T00:43:09.050Z,6.38
2023-04-21T00:53:30.448Z,6.33
2023-04-21T01:03:52.197Z,6.26
2023-04-21T01:14:13.683Z,6.22
2023-04-21T01:24:39.280Z,6.19
2023-04-21T01:35:01.163Z,6.16
2023-04-21T01:45:22.565Z,6.11
2023-04-21T01:55:43.741Z,6.06
2023-04-21T02:06:05.203Z,6.04
2023-04-21T02:16:28.109Z,5.99
2023-04-21T02:26:49.359Z,5.94
2023-04-21T02:37:10.898Z,5.90
2023-04-21T02:47:32.297Z,5.84
2023-04-21T02:57:53.826Z,5.81
2023-04-21T03:08:17.073Z,5.73
2023-04-21T03:18:38.210Z,5.68
2023-04-21T03:29:00.048Z,5.66
2023-04-21T03:39:21.123Z,5.61
2023-04-21T03:49:44.981Z,5.60
2023-04-21T04:00:07.016Z,5.54
2023-04-21T04:10:33.827Z,5.51
2023-04-21T04:20:55.089Z,5.47
2023-04-21T04:31:17.635Z,5.43
2023-04-21T04:41:39.142Z,5.40
2023-04-21T04:52:00.183Z,5.38
2023-04-21T05:02:23.069Z,5.38
2023-04-21T05:12:44.795Z,5.36
2023-04-21T05:23:05.835Z,5.35
2023-04-21T05:33:27.172Z,5.35
2023-04-21T05:43:48.306Z,5.34
2023-04-21T05:54:09.517Z,5.39
2023-04-21T06:04:31.443Z,5.50
2023-04-21T06:14:57.640Z,5.66
2023-04-21T06:25:19.037Z,5.85
2023-04-21T06:35:39.980Z,6.01
2023-04-21T06:46:01.396Z,6.20
2023-04-21T06:56:22.539Z,6.45
2023-04-21T07:06:43.839Z,6.69
2023-04-21T07:17:04.919Z,6.96
2023-04-21T07:27:26.410Z,7.23
2023-04-21T07:37:47.725Z,7.49
2023-04-21T07:48:09.241Z,7.72
2023-04-21T07:58:30.540Z,7.89
2023-04-21T08:08:51.793Z,8.02
2023-04-21T08:19:12.835Z,8.19
2023-04-21T08:29:33.894Z,8.38
2023-04-21T08:39:55.153Z,8.65
2023-04-21T08:50:16.270Z,8.93
2023-04-21T09:00:38.052Z,9.17
2023-04-21T09:11:01.595Z,9.32
2023-04-21T09:21:30.677Z,9.57
2023-04-21T09:31:53.473Z,9.74
2023-04-21T09:42:14.534Z,9.87
2023-04-21T09:52:38.840Z,10.05
2023-04-21T10:03:05.490Z,10.30
2023-04-21T10:13:27.806Z,10.45
2023-04-21T10:23:50.082Z,10.65
2023-04-21T10:34:13.824Z,10.76
2023-04-21T10:44:35.024Z,10.97
2023-04-21T10:54:56.167Z,11.17
2023-04-21T11:05:18.226Z,11.33
2023-04-21T11:15:39.406Z,11.37
2023-04-21T11:26:00.400Z,11.52
2023-04-21T11:36:23.197Z,11.71
2023-04-21T11:46:47.473Z,11.84
2023-04-21T11:57:08.978Z,11.99
2023-04-21T12:07:36.487Z,12.19
2023-04-21T12:17:57.908Z,12.41
2023-04-21T12:28:19.460Z,12.58
2023-04-21T12:38:40.742Z,12.68
2023-04-21T12:49:01.861Z,12.70
2023-04-21T12:59:22.940Z,12.66
2023-04-21T13:09:44.324Z,12.69
2023-04-21T13:20:07.539Z,12.82
2023-04-21T13:30:29.252Z,12.82
2023-04-21T13:40:51.669Z,12.81
2023-04-21T13:51:12.941Z,12.79
2023-04-21T14:01:34.330Z,12.80
2023-04-21T14:11:56.042Z,12.85
2023-04-21T14:22:17.730Z,12.98
2023-04-21T14:32:39.696Z,12.87
2023-04-21T14:43:00.913Z,12.78
2023-04-21T14:53:22.546Z,12.71
2023-04-21T15:03:44.050Z,12.62
2023-04-21T15:14:05.890Z,12.59
2023-04-21T15:24:27.244Z,12.58
2023-04-21T15:34:49.364Z,12.56
2023-04-21T15:45:11.346Z,12.53
2023-04-21T15:55:34.126Z,12.88
2023-04-21T16:05:55.544Z,12.85
2023-04-21T16:16:17.129Z,12.90
2023-04-21T16:26:38.659Z,13.00
2023-04-21T16:36:59.525Z,12.88
2023-04-21T16:47:20.994Z,12.75
2023-04-21T16:57:42.348Z,12.71
2023-04-21T17:08:03.791Z,12.69
2023-04-21T17:18:25.327Z,12.68
2023-04-21T17:28:46.934Z,12.53
2023-04-21T17:39:08.540Z,12.39
2023-04-21T17:49:30.170Z,12.25
2023-04-21T17:59:51.493Z,12.32
2023-04-21T18:10:13.019Z,12.50
2023-04-21T18:20:34.388Z,12.60
2023-04-21T18:30:55.737Z,12.61
2023-04-21T18:41:16.927Z,12.64
2023-04-21T18:51:38.160Z,12.61
2023-04-21T19:01:59.650Z,12.54
2023-04-21T19:12:22.230Z,12.52
2023-04-21T19:22:44.629Z,12.53
2023-04-21T19:33:06.261Z,12.50
2023-04-21T19:43:28.926Z,12.43
2023-04-21T19:54:03.240Z,12.38
2023-04-21T20:04:32.262Z,12.30
2023-04-21T20:14:54.425Z,12.22
2023-04-21T20:25:17.701Z,12.15
2023-04-21T20:35:40.629Z,12.08
2023-04-21T20:46:02.091Z,12.02
2023-04-21T20:56:24.362Z,11.92
2023-04-21T21:06:45.895Z,11.84
2023-04-21T21:17:07.280Z,11.76
2023-04-21T21:27:28.954Z,11.66
2023-04-21T21:37:50.402Z,11.59
2023-04-21T21:48:11.622Z,11.50
2023-04-21T21:58:32.832Z,11.43
2023-04-21T22:08:54.388Z,11.36
2023-04-21T22:19:17.796Z,11.29
2023-04-21T22:29:39.354Z,11.22
2023-04-21T22:40:00.966Z,11.15
2023-04-21T22:50:22.733Z,11.08
2023-04-21T23:00:44.500Z,11.01
2023-04-21T23:11:05.943Z,10.96
2023-04-21T23:21:27.371Z,10.90
2023-04-21T23:31:48.467Z,10.84
2023-04-21T23:42:10.316Z,10.77
2023-04-21T23:52:31.853Z,10.71
